sensor_id;sensor_type;location;lat;lon;timestamp;P1;durP1;ratioP1;P2;durP2;ratioP2
11269;SDS011;5692;48.956;9.200;2023-02-15T00:01:46;115.03;;;109.53;;
11269;SDS011;5692;48.956;9.200;2023-02-15T00:04:13;106.55;;;101.43;;
11269;SDS011;5692;48.956;9.200;2023-02-15T00:06:39;104.10;;;99.10;;
11269;SDS011;5692;48.956;9.200;2023-02-15T00:09:07;101.82;;;96.93;;
11269;SDS011;5692;48.956;9.200;2023-02-15T00:11:34;100.35;;;95.53;;
11269;SDS011;5692;48.956;9.200;2023-02-15T00:14:20;100.90;;;96.05;;
11269;SDS011;5692;48.956;9.200;2023-02-15T00:16:47;106.80;;;101.68;;
11269;SDS011;5692;48.956;9.200;2023-02-15T00:19:14;107.55;;;102.35;;
11269;SDS011;5692;48.956;9.200;2023-02-15T00:21:40;111.72;;;106.35;;
11269;SDS011;5692;48.956;9.200;2023-02-15T00:24:08;117.47;;;111.85;;
11269;SDS011;5692;48.956;9.200;2023-02-15T00:26:35;105.35;;;100.30;;
11269;SDS011;5692;48.956;9.200;2023-02-15T00:29:03;103.78;;;98.78;;
11269;SDS011;5692;48.956;9.200;2023-02-15T00:31:30;101.35;;;96.47;;
11269;SDS011;5692;48.956;9.200;2023-02-15T00:34:11;116.30;;;110.70;;
11269;SDS011;5692;48.956;9.200;2023-02-15T00:36:37;110.07;;;104.78;;
11269;SDS011;5692;48.956;9.200;2023-02-15T00:39:04;115.88;;;110.28;;
11269;SDS011;5692;48.956;9.200;2023-02-15T00:41:30;113.25;;;107.82;;
11269;SDS011;5692;48.956;9.200;2023-02-15T00:43:56;115.53;;;109.97;;
11269;SDS011;5692;48.956;9.200;2023-02-15T00:46:22;114.72;;;109.22;;
11269;SDS011;5692;48.956;9.200;2023-02-15T00:48:48;116.13;;;110.53;;
11269;SDS011;5692;48.956;9.200;2023-02-15T00:51:14;121.75;;;115.90;;
11269;SDS011;5692;48.956;9.200;2023-02-15T00:53:42;123.32;;;117.40;;
11269;SDS011;5692;48.956;9.200;2023-02-15T00:56:09;118.00;;;112.30;;
11269;SDS011;5692;48.956;9.200;2023-02-15T00:58:35;122.47;;;116.57;;
11269;SDS011;5692;48.956;9.200;2023-02-15T01:01:02;123.50;;;117.57;;
11269;SDS011;5692;48.956;9.200;2023-02-15T01:03:31;120.35;;;114.55;;
11269;SDS011;5692;48.956;9.200;2023-02-15T01:05:57;121.80;;;115.95;;
11269;SDS011;5692;48.956;9.200;2023-02-15T01:08:23;122.75;;;116.88;;
11269;SDS011;5692;48.956;9.200;2023-02-15T01:10:49;128.32;;;122.18;;
11269;SDS011;5692;48.956;9.200;2023-02-15T01:13:15;114.43;;;108.93;;
11269;SDS011;5692;48.956;9.200;2023-02-15T01:15:41;120.30;;;114.50;;
11269;SDS011;5692;48.956;9.200;2023-02-15T01:18:08;113.20;;;107.78;;
11269;SDS011;5692;48.956;9.200;2023-02-15T01:20:35;123.80;;;117.85;;
11269;SDS011;5692;48.956;9.200;2023-02-15T01:23:04;133.07;;;126.70;;
11269;SDS011;5692;48.956;9.200;2023-02-15T01:25:30;110.05;;;104.75;;
11269;SDS011;5692;48.956;9.200;2023-02-15T01:27:56;114.25;;;108.75;;
11269;SDS011;5692;48.956;9.200;2023-02-15T01:30:22;124.13;;;118.18;;
11269;SDS011;5692;48.956;9.200;2023-02-15T01:32:48;123.93;;;117.97;;
11269;SDS011;5692;48.956;9.200;2023-02-15T01:35:14;123.13;;;117.22;;
11269;SDS011;5692;48.956;9.200;2023-02-15T01:37:40;122.93;;;117.03;;
11269;SDS011;5692;48.956;9.200;2023-02-15T01:40:08;112.30;;;106.90;;
11269;SDS011;5692;48.956;9.200;2023-02-15T01:42:34;116.30;;;110.72;;
11269;SDS011;5692;48.956;9.200;2023-02-15T01:45:04;111.65;;;106.25;;
11269;SDS011;5692;48.956;9.200;2023-02-15T01:50:06;119.93;;;114.18;;
11269;SDS011;5692;48.956;9.200;2023-02-15T01:52:35;116.82;;;111.22;;
11269;SDS011;5692;48.956;9.200;2023-02-15T01:55:02;122.72;;;116.82;;
11269;SDS011;5692;48.956;9.200;2023-02-15T01:57:29;114.25;;;108.75;;
11269;SDS011;5692;48.956;9.200;2023-02-15T01:59:56;112.55;;;107.15;;
11269;SDS011;5692;48.956;9.200;2023-02-15T02:02:24;113.65;;;108.20;;
11269;SDS011;5692;48.956;9.200;2023-02-15T02:04:51;111.95;;;106.55;;
11269;SDS011;5692;48.956;9.200;2023-02-15T02:07:22;118.15;;;112.45;;
11269;SDS011;5692;48.956;9.200;2023-02-15T02:09:48;114.88;;;109.38;;
11269;SDS011;5692;48.956;9.200;2023-02-15T02:12:15;120.50;;;114.70;;
11269;SDS011;5692;48.956;9.200;2023-02-15T02:14:42;121.20;;;115.40;;
11269;SDS011;5692;48.956;9.200;2023-02-15T02:32:43;115.60;;;110.03;;
11269;SDS011;5692;48.956;9.200;2023-02-15T02:38:05;119.10;;;113.40;;
11269;SDS011;5692;48.956;9.200;2023-02-15T02:40:41;114.57;;;109.07;;
11269;SDS011;5692;48.956;9.200;2023-02-15T02:45:57;116.28;;;110.70;;
11269;SDS011;5692;48.956;9.200;2023-02-15T02:48:25;121.22;;;115.43;;
11269;SDS011;5692;48.956;9.200;2023-02-15T02:50:52;123.60;;;117.68;;
11269;SDS011;5692;48.956;9.200;2023-02-15T02:53:18;120.15;;;114.38;;
11269;SDS011;5692;48.956;9.200;2023-02-15T02:55:49;117.78;;;112.13;;
11269;SDS011;5692;48.956;9.200;2023-02-15T03:00:55;111.15;;;105.80;;
11269;SDS011;5692;48.956;9.200;2023-02-15T03:05:54;114.90;;;109.40;;
11269;SDS011;5692;48.956;9.200;2023-02-15T03:08:21;117.75;;;112.07;;
11269;SDS011;5692;48.956;9.200;2023-02-15T03:10:50;110.32;;;105.03;;
11269;SDS011;5692;48.956;9.200;2023-02-15T03:13:17;122.05;;;116.20;;
11269;SDS011;5692;48.956;9.200;2023-02-15T03:15:43;110.18;;;104.88;;
11269;SDS011;5692;48.956;9.200;2023-02-15T03:18:31;120.32;;;114.53;;
11269;SDS011;5692;48.956;9.200;2023-02-15T03:20:59;115.32;;;109.80;;
11269;SDS011;5692;48.956;9.200;2023-02-15T03:23:26;112.93;;;107.50;;
11269;SDS011;5692;48.956;9.200;2023-02-15T03:25:57;114.57;;;109.07;;
11269;SDS011;5692;48.956;9.200;2023-02-15T03:28:29;119.40;;;113.68;;
11269;SDS011;5692;48.956;9.200;2023-02-15T03:30:58;110.20;;;104.90;;
11269;SDS011;5692;48.956;9.200;2023-02-15T03:33:26;122.18;;;116.30;;
11269;SDS011;5692;48.956;9.200;2023-02-15T03:35:54;115.65;;;110.10;;
11269;SDS011;5692;48.956;9.200;2023-02-15T03:38:25;122.28;;;116.38;;
11269;SDS011;5692;48.956;9.200;2023-02-15T03:40:55;128.82;;;122.63;;
11269;SDS011;5692;48.956;9.200;2023-02-15T03:46:04;121.97;;;116.07;;
11269;SDS011;5692;48.956;9.200;2023-02-15T03:48:32;119.32;;;113.60;;
11269;SDS011;5692;48.956;9.200;2023-02-15T03:51:03;126.15;;;120.07;;
11269;SDS011;5692;48.956;9.200;2023-02-15T03:53:49;115.40;;;109.85;;
11269;SDS011;5692;48.956;9.200;2023-02-15T03:56:16;117.88;;;112.18;;
11269;SDS011;5692;48.956;9.200;2023-02-15T03:58:42;121.82;;;115.97;;
11269;SDS011;5692;48.956;9.200;2023-02-15T04:01:27;117.25;;;111.65;;
11269;SDS011;5692;48.956;9.200;2023-02-15T04:04:17;120.22;;;114.43;;
11269;SDS011;5692;48.956;9.200;2023-02-15T04:06:43;118.80;;;113.10;;
11269;SDS011;5692;48.956;9.200;2023-02-15T04:09:09;114.88;;;109.38;;
11269;SDS011;5692;48.956;9.200;2023-02-15T04:11:54;120.47;;;114.68;;
11269;SDS011;5692;48.956;9.200;2023-02-15T04:14:23;122.57;;;116.68;;
11269;SDS011;5692;48.956;9.200;2023-02-15T04:17:08;121.05;;;115.25;;
11269;SDS011;5692;48.956;9.200;2023-02-15T04:19:34;121.70;;;115.85;;
11269;SDS011;5692;48.956;9.200;2023-02-15T04:22:19;119.15;;;113.43;;
11269;SDS011;5692;48.956;9.200;2023-02-15T04:25:04;117.88;;;112.22;;
11269;SDS011;5692;48.956;9.200;2023-02-15T04:27:41;108.57;;;103.35;;
11269;SDS011;5692;48.956;9.200;2023-02-15T04:30:07;116.07;;;110.47;;
11269;SDS011;5692;48.956;9.200;2023-02-15T04:32:34;113.85;;;108.35;;
11269;SDS011;5692;48.956;9.200;2023-02-15T04:35:01;121.13;;;115.32;;
11269;SDS011;5692;48.956;9.200;2023-02-15T04:37:29;127.10;;;121.00;;
11269;SDS011;5692;48.956;9.200;2023-02-15T04:39:55;117.60;;;111.95;;
11269;SDS011;5692;48.956;9.200;2023-02-15T04:42:23;116.65;;;111.05;;
11269;SDS011;5692;48.956;9.200;2023-02-15T04:44:50;125.13;;;119.13;;
11269;SDS011;5692;48.956;9.200;2023-02-15T04:47:16;126.88;;;120.78;;
11269;SDS011;5692;48.956;9.200;2023-02-15T04:49:42;131.55;;;125.25;;
11269;SDS011;5692;48.956;9.200;2023-02-15T04:52:08;132.00;;;125.65;;
11269;SDS011;5692;48.956;9.200;2023-02-15T04:54:34;122.55;;;116.65;;
11269;SDS011;5692;48.956;9.200;2023-02-15T04:57:02;130.60;;;124.32;;
11269;SDS011;5692;48.956;9.200;2023-02-15T04:59:28;130.45;;;124.15;;
11269;SDS011;5692;48.956;9.200;2023-02-15T05:01:57;133.95;;;127.53;;
11269;SDS011;5692;48.956;9.200;2023-02-15T05:04:26;122.93;;;117.03;;
11269;SDS011;5692;48.956;9.200;2023-02-15T05:06:52;124.28;;;118.28;;
11269;SDS011;5692;48.956;9.200;2023-02-15T05:09:18;116.65;;;111.05;;
11269;SDS011;5692;48.956;9.200;2023-02-15T05:11:44;123.35;;;117.45;;
11269;SDS011;5692;48.956;9.200;2023-02-15T05:14:10;119.22;;;113.53;;
11269;SDS011;5692;48.956;9.200;2023-02-15T05:16:36;119.57;;;113.85;;
11269;SDS011;5692;48.956;9.200;2023-02-15T05:19:02;126.63;;;120.53;;
11269;SDS011;5692;48.956;9.200;2023-02-15T05:21:28;125.40;;;119.40;;
11269;SDS011;5692;48.956;9.200;2023-02-15T05:23:55;128.88;;;122.68;;
11269;SDS011;5692;48.956;9.200;2023-02-15T05:26:21;128.95;;;122.75;;
11269;SDS011;5692;48.956;9.200;2023-02-15T05:29:07;122.22;;;116.32;;
11269;SDS011;5692;48.956;9.200;2023-02-15T05:31:34;122.47;;;116.57;;
11269;SDS011;5692;48.956;9.200;2023-02-15T05:34:00;128.45;;;122.28;;
11269;SDS011;5692;48.956;9.200;2023-02-15T05:36:26;128.60;;;122.40;;
11269;SDS011;5692;48.956;9.200;2023-02-15T05:38:53;127.32;;;121.20;;
11269;SDS011;5692;48.956;9.200;2023-02-15T05:41:19;127.30;;;121.20;;
11269;SDS011;5692;48.956;9.200;2023-02-15T05:43:45;119.88;;;114.13;;
11269;SDS011;5692;48.956;9.200;2023-02-15T05:46:12;115.45;;;109.90;;
11269;SDS011;5692;48.956;9.200;2023-02-15T05:48:40;121.28;;;115.47;;
11269;SDS011;5692;48.956;9.200;2023-02-15T05:51:11;116.57;;;110.97;;
11269;SDS011;5692;48.956;9.200;2023-02-15T05:53:41;130.88;;;124.57;;
11269;SDS011;5692;48.956;9.200;2023-02-15T05:56:08;132.18;;;125.82;;
11269;SDS011;5692;48.956;9.200;2023-02-15T05:58:36;123.05;;;117.15;;
11269;SDS011;5692;48.956;9.200;2023-02-15T06:01:15;127.22;;;121.13;;
11269;SDS011;5692;48.956;9.200;2023-02-15T06:03:47;128.82;;;122.63;;
11269;SDS011;5692;48.956;9.200;2023-02-15T06:06:13;133.13;;;126.72;;
11269;SDS011;5692;48.956;9.200;2023-02-15T06:08:39;128.02;;;121.88;;
11269;SDS011;5692;48.956;9.200;2023-02-15T06:11:05;134.18;;;127.72;;
11269;SDS011;5692;48.956;9.200;2023-02-15T06:13:32;126.28;;;120.20;;
11269;SDS011;5692;48.956;9.200;2023-02-15T06:15:58;124.85;;;118.85;;
11269;SDS011;5692;48.956;9.200;2023-02-15T06:18:24;125.93;;;119.88;;
11269;SDS011;5692;48.956;9.200;2023-02-15T06:20:50;134.85;;;128.35;;
11269;SDS011;5692;48.956;9.200;2023-02-15T06:23:17;119.30;;;113.60;;
11269;SDS011;5692;48.956;9.200;2023-02-15T06:25:44;123.10;;;117.20;;
11269;SDS011;5692;48.956;9.200;2023-02-15T06:28:10;122.50;;;116.60;;
11269;SDS011;5692;48.956;9.200;2023-02-15T06:30:36;128.65;;;122.45;;
11269;SDS011;5692;48.956;9.200;2023-02-15T06:33:02;123.28;;;117.38;;
11269;SDS011;5692;48.956;9.200;2023-02-15T06:35:28;123.57;;;117.68;;
11269;SDS011;5692;48.956;9.200;2023-02-15T06:37:54;124.82;;;118.82;;
11269;SDS011;5692;48.956;9.200;2023-02-15T06:40:20;106.82;;;101.72;;
11269;SDS011;5692;48.956;9.200;2023-02-15T06:42:46;105.28;;;100.18;;
11269;SDS011;5692;48.956;9.200;2023-02-15T06:45:13;111.78;;;106.43;;
11269;SDS011;5692;48.956;9.200;2023-02-15T06:47:39;116.32;;;110.72;;
11269;SDS011;5692;48.956;9.200;2023-02-15T06:50:08;119.22;;;113.53;;
11269;SDS011;5692;48.956;9.200;2023-02-15T06:52:34;125.25;;;119.25;;
11269;SDS011;5692;48.956;9.200;2023-02-15T06:55:00;111.32;;;105.97;;
11269;SDS011;5692;48.956;9.200;2023-02-15T06:57:26;105.22;;;100.13;;
11269;SDS011;5692;48.956;9.200;2023-02-15T06:59:52;108.78;;;103.53;;
11269;SDS011;5692;48.956;9.200;2023-02-15T07:02:18;110.90;;;105.60;;
11269;SDS011;5692;48.956;9.200;2023-02-15T07:04:44;111.07;;;105.75;;
11269;SDS011;5692;48.956;9.200;2023-02-15T07:07:11;107.93;;;102.72;;
11269;SDS011;5692;48.956;9.200;2023-02-15T07:09:37;108.35;;;103.15;;
11269;SDS011;5692;48.956;9.200;2023-02-15T07:12:04;105.45;;;100.35;;
11269;SDS011;5692;48.956;9.200;2023-02-15T07:14:51;106.88;;;101.78;;
11269;SDS011;5692;48.956;9.200;2023-02-15T07:17:17;110.15;;;104.85;;
11269;SDS011;5692;48.956;9.200;2023-02-15T07:19:43;120.03;;;114.22;;
11269;SDS011;5692;48.956;9.200;2023-02-15T07:22:09;113.85;;;108.35;;
11269;SDS011;5692;48.956;9.200;2023-02-15T07:24:35;114.80;;;109.30;;
11269;SDS011;5692;48.956;9.200;2023-02-15T07:27:01;106.30;;;101.20;;
11269;SDS011;5692;48.956;9.200;2023-02-15T07:29:28;100.68;;;95.88;;
11269;SDS011;5692;48.956;9.200;2023-02-15T07:31:54;86.32;;;82.15;;
11269;SDS011;5692;48.956;9.200;2023-02-15T07:34:20;107.72;;;102.53;;
11269;SDS011;5692;48.956;9.200;2023-02-15T07:36:49;100.82;;;95.97;;
11269;SDS011;5692;48.956;9.200;2023-02-15T07:39:15;108.22;;;103.03;;
11269;SDS011;5692;48.956;9.200;2023-02-15T07:41:42;100.40;;;95.55;;
11269;SDS011;5692;48.956;9.200;2023-02-15T07:44:11;106.15;;;101.05;;
11269;SDS011;5692;48.956;9.200;2023-02-15T07:46:41;108.68;;;103.45;;
11269;SDS011;5692;48.956;9.200;2023-02-15T07:49:07;108.25;;;103.05;;
11269;SDS011;5692;48.956;9.200;2023-02-15T07:51:33;100.88;;;96.03;;
11269;SDS011;5692;48.956;9.200;2023-02-15T07:53:59;94.43;;;89.88;;
11269;SDS011;5692;48.956;9.200;2023-02-15T07:56:25;94.38;;;89.88;;
11269;SDS011;5692;48.956;9.200;2023-02-15T07:58:51;96.05;;;91.45;;
11269;SDS011;5692;48.956;9.200;2023-02-15T08:01:25;96.53;;;91.88;;
11269;SDS011;5692;48.956;9.200;2023-02-15T08:03:52;99.72;;;94.93;;
11269;SDS011;5692;48.956;9.200;2023-02-15T08:06:18;93.20;;;88.70;;
11269;SDS011;5692;48.956;9.200;2023-02-15T08:08:47;97.40;;;92.70;;
11269;SDS011;5692;48.956;9.200;2023-02-15T08:11:15;92.95;;;88.45;;
11269;SDS011;5692;48.956;9.200;2023-02-15T08:14:12;98.13;;;93.40;;
11269;SDS011;5692;48.956;9.200;2023-02-15T08:16:37;98.50;;;93.75;;
11269;SDS011;5692;48.956;9.200;2023-02-15T08:19:05;98.65;;;93.90;;
11269;SDS011;5692;48.956;9.200;2023-02-15T08:21:35;100.75;;;95.90;;
11269;SDS011;5692;48.956;9.200;2023-02-15T08:24:02;105.28;;;100.18;;
11269;SDS011;5692;48.956;9.200;2023-02-15T08:26:29;101.50;;;96.60;;
11269;SDS011;5692;48.956;9.200;2023-02-15T08:28:55;100.68;;;95.85;;
11269;SDS011;5692;48.956;9.200;2023-02-15T08:31:24;112.53;;;107.13;;
11269;SDS011;5692;48.956;9.200;2023-02-15T08:33:51;108.68;;;103.47;;
11269;SDS011;5692;48.956;9.200;2023-02-15T08:36:19;108.90;;;103.70;;
11269;SDS011;5692;48.956;9.200;2023-02-15T08:38:45;112.75;;;107.35;;
11269;SDS011;5692;48.956;9.200;2023-02-15T08:43:41;104.55;;;99.55;;
11269;SDS011;5692;48.956;9.200;2023-02-15T08:46:07;104.60;;;99.60;;
11269;SDS011;5692;48.956;9.200;2023-02-15T08:48:34;128.88;;;122.70;;
11269;SDS011;5692;48.956;9.200;2023-02-15T08:51:04;114.20;;;108.70;;
11269;SDS011;5692;48.956;9.200;2023-02-15T08:53:33;110.38;;;105.07;;
11269;SDS011;5692;48.956;9.200;2023-02-15T08:55:59;102.32;;;97.43;;
11269;SDS011;5692;48.956;9.200;2023-02-15T08:58:25;117.05;;;111.45;;
11269;SDS011;5692;48.956;9.200;2023-02-15T09:00:51;106.63;;;101.50;;
11269;SDS011;5692;48.956;9.200;2023-02-15T09:03:17;105.22;;;100.18;;
11269;SDS011;5692;48.956;9.200;2023-02-15T09:05:43;108.78;;;103.57;;
11269;SDS011;5692;48.956;9.200;2023-02-15T09:08:09;107.30;;;102.10;;
11269;SDS011;5692;48.956;9.200;2023-02-15T09:10:35;104.40;;;99.40;;
11269;SDS011;5692;48.956;9.200;2023-02-15T09:13:02;112.53;;;107.13;;
11269;SDS011;5692;48.956;9.200;2023-02-15T09:15:28;112.47;;;107.07;;
11269;SDS011;5692;48.956;9.200;2023-02-15T09:17:57;109.20;;;103.95;;
11269;SDS011;5692;48.956;9.200;2023-02-15T09:20:26;111.80;;;106.43;;
11269;SDS011;5692;48.956;9.200;2023-02-15T09:22:54;106.28;;;101.18;;
11269;SDS011;5692;48.956;9.200;2023-02-15T09:25:21;103.72;;;98.72;;
11269;SDS011;5692;48.956;9.200;2023-02-15T09:27:50;113.30;;;107.88;;
11269;SDS011;5692;48.956;9.200;2023-02-15T09:30:16;119.32;;;113.60;;
11269;SDS011;5692;48.956;9.200;2023-02-15T09:32:42;105.82;;;100.75;;
11269;SDS011;5692;48.956;9.200;2023-02-15T09:35:08;111.15;;;105.80;;
11269;SDS011;5692;48.956;9.200;2023-02-15T09:37:34;99.10;;;94.32;;
11269;SDS011;5692;48.956;9.200;2023-02-15T09:40:00;108.13;;;102.93;;
11269;SDS011;5692;48.956;9.200;2023-02-15T09:42:34;113.65;;;108.20;;
11269;SDS011;5692;48.956;9.200;2023-02-15T09:48:23;102.43;;;97.50;;
11269;SDS011;5692;48.956;9.200;2023-02-15T09:53:25;101.10;;;96.22;;
11269;SDS011;5692;48.956;9.200;2023-02-15T10:01:19;107.90;;;102.70;;
11269;SDS011;5692;48.956;9.200;2023-02-15T10:11:39;100.38;;;95.53;;
11269;SDS011;5692;48.956;9.200;2023-02-15T10:19:32;110.47;;;105.18;;
11269;SDS011;5692;48.956;9.200;2023-02-15T10:22:20;108.57;;;103.35;;
11269;SDS011;5692;48.956;9.200;2023-02-15T10:27:39;109.88;;;104.57;;
11269;SDS011;5692;48.956;9.200;2023-02-15T10:30:11;101.70;;;96.80;;
11269;SDS011;5692;48.956;9.200;2023-02-15T10:35:26;105.88;;;100.78;;
11269;SDS011;5692;48.956;9.200;2023-02-15T10:38:06;104.07;;;99.07;;
11269;SDS011;5692;48.956;9.200;2023-02-15T10:40:46;107.00;;;101.85;;
11269;SDS011;5692;48.956;9.200;2023-02-15T10:43:20;109.70;;;104.43;;
11269;SDS011;5692;48.956;9.200;2023-02-15T10:46:01;97.50;;;92.82;;
11269;SDS011;5692;48.956;9.200;2023-02-15T10:51:16;95.85;;;91.25;;
11269;SDS011;5692;48.956;9.200;2023-02-15T10:56:20;98.43;;;93.70;;
11269;SDS011;5692;48.956;9.200;2023-02-15T11:06:39;99.90;;;95.10;;
11269;SDS011;5692;48.956;9.200;2023-02-15T11:09:11;92.00;;;87.60;;
11269;SDS011;5692;48.956;9.200;2023-02-15T11:11:41;101.18;;;96.28;;
11269;SDS011;5692;48.956;9.200;2023-02-15T11:16:55;104.72;;;99.70;;
11269;SDS011;5692;48.956;9.200;2023-02-15T11:19:24;114.45;;;108.95;;
11269;SDS011;5692;48.956;9.200;2023-02-15T11:21:57;107.03;;;101.88;;
11269;SDS011;5692;48.956;9.200;2023-02-15T11:24:26;118.35;;;112.65;;
11269;SDS011;5692;48.956;9.200;2023-02-15T11:27:05;117.97;;;112.30;;
11269;SDS011;5692;48.956;9.200;2023-02-15T11:32:31;130.52;;;124.22;;
11269;SDS011;5692;48.956;9.200;2023-02-15T11:37:29;144.35;;;137.43;;
11269;SDS011;5692;48.956;9.200;2023-02-15T11:39:57;151.57;;;144.27;;
11269;SDS011;5692;48.956;9.200;2023-02-15T11:42:25;153.30;;;145.95;;
11269;SDS011;5692;48.956;9.200;2023-02-15T11:47:19;146.30;;;139.30;;
11269;SDS011;5692;48.956;9.200;2023-02-15T11:49:45;148.65;;;141.55;;
11269;SDS011;5692;48.956;9.200;2023-02-15T11:52:12;152.93;;;145.60;;
11269;SDS011;5692;48.956;9.200;2023-02-15T11:54:56;151.57;;;144.30;;
11269;SDS011;5692;48.956;9.200;2023-02-15T11:57:33;172.18;;;163.93;;
11269;SDS011;5692;48.956;9.200;2023-02-15T12:00:10;164.63;;;156.73;;
11269;SDS011;5692;48.956;9.200;2023-02-15T12:02:38;178.10;;;169.60;;
11269;SDS011;5692;48.956;9.200;2023-02-15T12:05:15;161.73;;;153.98;;
11269;SDS011;5692;48.956;9.200;2023-02-15T12:07:48;162.45;;;154.65;;
11269;SDS011;5692;48.956;9.200;2023-02-15T12:12:47;162.60;;;154.82;;
11269;SDS011;5692;48.956;9.200;2023-02-15T12:15:13;169.88;;;161.77;;
11269;SDS011;5692;48.956;9.200;2023-02-15T12:17:40;162.27;;;154.48;;
11269;SDS011;5692;48.956;9.200;2023-02-15T12:22:40;161.55;;;153.80;;
11269;SDS011;5692;48.956;9.200;2023-02-15T12:25:21;160.48;;;152.77;;
11269;SDS011;5692;48.956;9.200;2023-02-15T12:27:48;173.18;;;164.88;;
11269;SDS011;5692;48.956;9.200;2023-02-15T12:30:19;175.55;;;167.15;;
11269;SDS011;5692;48.956;9.200;2023-02-15T12:32:51;195.98;;;186.60;;
11269;SDS011;5692;48.956;9.200;2023-02-15T12:35:31;206.75;;;196.85;;
11269;SDS011;5692;48.956;9.200;2023-02-15T12:38:01;208.82;;;198.82;;
11269;SDS011;5692;48.956;9.200;2023-02-15T12:40:28;203.75;;;194.00;;
11269;SDS011;5692;48.956;9.200;2023-02-15T12:43:01;183.07;;;174.27;;
11269;SDS011;5692;48.956;9.200;2023-02-15T12:45:33;213.40;;;203.20;;
11269;SDS011;5692;48.956;9.200;2023-02-15T12:48:12;199.90;;;190.32;;
11269;SDS011;5692;48.956;9.200;2023-02-15T12:50:41;222.57;;;211.93;;
11269;SDS011;5692;48.956;9.200;2023-02-15T12:55:33;210.25;;;200.18;;
11269;SDS011;5692;48.956;9.200;2023-02-15T13:00:32;220.68;;;210.13;;
11269;SDS011;5692;48.956;9.200;2023-02-15T13:02:58;202.88;;;193.18;;
11269;SDS011;5692;48.956;9.200;2023-02-15T13:07:56;223.73;;;213.02;;
11269;SDS011;5692;48.956;9.200;2023-02-15T13:10:24;64.65;;;61.53;;
11269;SDS011;5692;48.956;9.200;2023-02-15T13:12:54;241.30;;;229.77;;
11269;SDS011;5692;48.956;9.200;2023-02-15T13:15:27;211.82;;;201.68;;
11269;SDS011;5692;48.956;9.200;2023-02-15T13:17:57;209.88;;;199.82;;
11269;SDS011;5692;48.956;9.200;2023-02-15T13:20:24;224.15;;;213.45;;
11269;SDS011;5692;48.956;9.200;2023-02-15T13:22:54;206.02;;;196.15;;
11269;SDS011;5692;48.956;9.200;2023-02-15T13:25:22;207.48;;;197.55;;
11269;SDS011;5692;48.956;9.200;2023-02-15T13:27:54;214.82;;;204.55;;
11269;SDS011;5692;48.956;9.200;2023-02-15T13:30:30;180.75;;;172.10;;
11269;SDS011;5692;48.956;9.200;2023-02-15T13:33:02;200.00;;;190.40;;
11269;SDS011;5692;48.956;9.200;2023-02-15T13:35:31;225.15;;;214.35;;
11269;SDS011;5692;48.956;9.200;2023-02-15T13:40:37;229.13;;;218.13;;
11269;SDS011;5692;48.956;9.200;2023-02-15T13:56:33;168.50;;;160.40;;
11269;SDS011;5692;48.956;9.200;2023-02-15T14:03:55;179.80;;;171.20;;
11269;SDS011;5692;48.956;9.200;2023-02-15T14:09:03;168.57;;;160.48;;
11269;SDS011;5692;48.956;9.200;2023-02-15T14:11:37;173.38;;;165.05;;
11269;SDS011;5692;48.956;9.200;2023-02-15T14:16:53;164.95;;;157.05;;
11269;SDS011;5692;48.956;9.200;2023-02-15T14:19:40;171.60;;;163.38;;
11269;SDS011;5692;48.956;9.200;2023-02-15T14:27:24;163.07;;;155.27;;
11269;SDS011;5692;48.956;9.200;2023-02-15T14:29:59;151.23;;;143.98;;
11269;SDS011;5692;48.956;9.200;2023-02-15T14:32:36;158.43;;;150.82;;
11269;SDS011;5692;48.956;9.200;2023-02-15T14:35:05;158.82;;;151.23;;
11269;SDS011;5692;48.956;9.200;2023-02-15T14:40:12;150.60;;;143.40;;
11269;SDS011;5692;48.956;9.200;2023-02-15T14:43:09;150.27;;;143.07;;
11269;SDS011;5692;48.956;9.200;2023-02-15T14:48:20;158.73;;;151.10;;
11269;SDS011;5692;48.956;9.200;2023-02-15T14:50:47;153.48;;;146.13;;
11269;SDS011;5692;48.956;9.200;2023-02-15T15:01:25;149.50;;;142.30;;
11269;SDS011;5692;48.956;9.200;2023-02-15T15:03:53;148.50;;;141.40;;
11269;SDS011;5692;48.956;9.200;2023-02-15T15:06:31;156.85;;;149.35;;
11269;SDS011;5692;48.956;9.200;2023-02-15T15:09:01;147.18;;;140.13;;
11269;SDS011;5692;48.956;9.200;2023-02-15T15:14:04;139.85;;;133.15;;
11269;SDS011;5692;48.956;9.200;2023-02-15T15:18:59;144.52;;;137.60;;
11269;SDS011;5692;48.956;9.200;2023-02-15T15:24:10;127.32;;;121.22;;
11269;SDS011;5692;48.956;9.200;2023-02-15T15:29:40;124.05;;;118.10;;
11269;SDS011;5692;48.956;9.200;2023-02-15T15:32:07;139.15;;;132.45;;
11269;SDS011;5692;48.956;9.200;2023-02-15T15:34:47;134.15;;;127.72;;
11269;SDS011;5692;48.956;9.200;2023-02-15T15:42:43;132.93;;;126.53;;
11269;SDS011;5692;48.956;9.200;2023-02-15T15:50:31;129.43;;;123.22;;
11269;SDS011;5692;48.956;9.200;2023-02-15T15:52:58;135.55;;;129.02;;
11269;SDS011;5692;48.956;9.200;2023-02-15T15:55:25;133.00;;;126.60;;
11269;SDS011;5692;48.956;9.200;2023-02-15T15:57:55;125.13;;;119.13;;
11269;SDS011;5692;48.956;9.200;2023-02-15T16:03:01;123.80;;;117.85;;
11269;SDS011;5692;48.956;9.200;2023-02-15T16:05:48;130.15;;;123.90;;
11269;SDS011;5692;48.956;9.200;2023-02-15T16:08:41;126.47;;;120.38;;
11269;SDS011;5692;48.956;9.200;2023-02-15T16:11:10;139.48;;;132.77;;
11269;SDS011;5692;48.956;9.200;2023-02-15T16:13:37;137.93;;;131.32;;
11269;SDS011;5692;48.956;9.200;2023-02-15T16:16:05;135.38;;;128.88;;
11269;SDS011;5692;48.956;9.200;2023-02-15T16:18:31;116.90;;;111.28;;
11269;SDS011;5692;48.956;9.200;2023-02-15T16:21:00;120.57;;;114.78;;
11269;SDS011;5692;48.956;9.200;2023-02-15T16:28:36;132.90;;;126.53;;
11269;SDS011;5692;48.956;9.200;2023-02-15T16:31:14;130.77;;;124.47;;
11269;SDS011;5692;48.956;9.200;2023-02-15T16:33:48;121.45;;;115.63;;
11269;SDS011;5692;48.956;9.200;2023-02-15T16:41:17;125.07;;;119.07;;
11269;SDS011;5692;48.956;9.200;2023-02-15T16:43:46;119.78;;;114.03;;
11269;SDS011;5692;48.956;9.200;2023-02-15T16:46:15;127.45;;;121.35;;
11269;SDS011;5692;48.956;9.200;2023-02-15T16:48:43;129.52;;;123.32;;
11269;SDS011;5692;48.956;9.200;2023-02-15T16:51:23;137.15;;;130.55;;
11269;SDS011;5692;48.956;9.200;2023-02-15T16:53:50;141.35;;;134.55;;
11269;SDS011;5692;48.956;9.200;2023-02-15T16:56:17;129.93;;;123.72;;
11269;SDS011;5692;48.956;9.200;2023-02-15T16:58:49;127.72;;;121.63;;
11269;SDS011;5692;48.956;9.200;2023-02-15T17:01:16;122.07;;;116.20;;
11269;SDS011;5692;48.956;9.200;2023-02-15T17:03:48;135.90;;;129.40;;
11269;SDS011;5692;48.956;9.200;2023-02-15T17:06:22;142.75;;;135.90;;
11269;SDS011;5692;48.956;9.200;2023-02-15T17:08:51;131.00;;;124.72;;
11269;SDS011;5692;48.956;9.200;2023-02-15T17:11:20;137.77;;;131.18;;
11269;SDS011;5692;48.956;9.200;2023-02-15T17:16:32;126.75;;;120.65;;
11269;SDS011;5692;48.956;9.200;2023-02-15T17:18:59;125.88;;;119.85;;
11269;SDS011;5692;48.956;9.200;2023-02-15T17:21:30;127.68;;;121.53;;
11269;SDS011;5692;48.956;9.200;2023-02-15T17:23:58;136.00;;;129.48;;
11269;SDS011;5692;48.956;9.200;2023-02-15T17:26:29;137.07;;;130.48;;